Time;durP1;ratioP1;P1;durP2;ratioP2;P2;SDS_P1;SDS_P2;PMS_P1;PMS_P2;Temp;Humidity;BMP_temperature;BMP_pressure;BME280_temperature;BME280_humidity;BME280_pressure;Samples;Min_cycle;Max_cycle;Signal;HPM_P1;HPM_P2
2023/08/07 00:01:33;;;;;;;3.08;1.20;;;12.00;99.90;;;;;;4968596;28;20030;-80
2023/08/07 00:03:59;;;;;;;5.80;1.33;;;11.90;99.90;;;;;;4968500;28;20038;-80
2023/08/07 00:06:25;;;;;;;2.05;1.20;;;11.90;99.90;;;;;;4969090;28;20038;-82
2023/08/07 00:08:51;;;;;;;4.22;1.40;;;11.90;99.90;;;;;;4969280;28;20109;-80
2023/08/07 00:11:16;;;;;;;4.00;1.55;;;12.00;99.90;;;;;;4968847;28;20107;-80
2023/08/07 00:13:42;;;;;;;2.08;1.30;;;11.90;99.90;;;;;;4967891;28;20086;-80
2023/08/07 00:16:07;;;;;;;2.65;1.30;;;12.00;99.90;;;;;;4968608;28;21422;-80
2023/08/07 00:18:33;;;;;;;3.80;1.60;;;11.80;99.90;;;;;;4967915;28;20026;-80
2023/08/07 00:20:59;;;;;;;1.85;1.05;;;11.80;99.90;;;;;;4968413;28;20520;-79
2023/08/07 00:23:25;;;;;;;2.60;1.30;;;11.80;99.90;;;;;;4967427;28;21491;-79
2023/08/07 00:25:51;;;;;;;1.63;1.15;;;11.80;99.90;;;;;;4968440;28;20034;-79
2023/08/07 00:28:16;;;;;;;3.13;1.45;;;11.70;99.90;;;;;;4968208;28;20031;-82
2023/08/07 00:30:42;;;;;;;4.45;1.40;;;11.70;99.90;;;;;;4966915;28;20030;-79
2023/08/07 00:33:07;;;;;;;2.65;1.30;;;11.60;99.90;;;;;;4967785;28;20068;-79
2023/08/07 00:35:33;;;;;;;7.22;1.40;;;11.60;99.90;;;;;;4966860;28;20113;-79
2023/08/07 00:37:58;;;;;;;3.83;1.63;;;11.60;99.90;;;;;;4966105;28;20042;-79
2023/08/07 00:40:24;;;;;;;2.40;1.20;;;11.50;99.90;;;;;;4967070;28;20839;-80
2023/08/07 00:42:49;;;;;;;2.70;1.50;;;11.50;99.90;;;;;;4967666;28;20445;-80
2023/08/07 00:45:17;;;;;;;3.50;1.50;;;11.50;99.90;;;;;;4968273;28;20027;-79
2023/08/07 00:47:45;;;;;;;3.17;1.65;;;11.40;99.90;;;;;;4967320;28;20198;-79
2023/08/07 00:50:12;;;;;;;2.83;1.30;;;11.40;99.90;;;;;;4964954;28;20038;-79
2023/08/07 00:52:37;;;;;;;5.07;1.50;;;11.30;99.90;;;;;;4966106;28;20023;-79
2023/08/07 00:55:03;;;;;;;5.43;1.43;;;11.20;99.90;;;;;;4967342;28;20039;-79
2023/08/07 00:57:30;;;;;;;3.57;1.50;;;11.10;99.90;;;;;;4966726;28;20109;-79
2023/08/07 00:59:55;;;;;;;2.07;1.20;;;11.10;99.90;;;;;;4965888;28;20088;-79
2023/08/07 01:02:21;;;;;;;3.53;1.73;;;11.00;99.90;;;;;;4966112;28;20031;-80
2023/08/07 01:04:47;;;;;;;2.87;1.30;;;11.00;99.90;;;;;;4966302;28;21147;-80
2023/08/07 01:07:12;;;;;;;4.33;1.50;;;10.90;99.90;;;;;;4967132;28;20202;-79
2023/08/07 01:09:38;;;;;;;2.77;1.50;;;10.90;99.90;;;;;;4967044;28;20052;-79
2023/08/07 01:12:16;;;;;;;4.07;1.50;;;10.90;99.90;;;;;;4967804;28;21562;-80
2023/08/07 01:15:03;;;;;;;3.07;1.70;;;10.90;99.90;;;;;;4966532;28;20045;-79
2023/08/07 01:17:29;;;;;;;2.70;1.73;;;10.80;99.90;;;;;;4967102;28;20023;-79
2023/08/07 01:19:57;;;;;;;2.60;1.60;;;10.80;99.90;;;;;;4966969;28;20027;-79
2023/08/07 01:22:22;;;;;;;4.40;1.80;;;10.70;99.90;;;;;;4968274;28;20058;-79
2023/08/07 01:24:50;;;;;;;2.07;1.30;;;10.70;99.90;;;;;;4967285;28;20121;-79
2023/08/07 01:27:36;;;;;;;3.00;1.57;;;10.60;99.90;;;;;;4966753;28;20035;-79
2023/08/07 01:30:10;;;;;;;2.27;1.30;;;10.60;99.90;;;;;;4967529;28;20026;-79
2023/08/07 01:32:52;;;;;;;4.90;1.97;;;10.60;99.90;;;;;;4968490;28;20027;-79
2023/08/07 01:35:25;;;;;;;1.70;1.30;;;10.60;99.90;;;;;;4969460;28;20281;-79
2023/08/07 01:37:53;;;;;;;2.83;1.37;;;10.70;99.90;;;;;;4971251;28;20026;-80
2023/08/07 01:40:19;;;;;;;3.37;1.47;;;10.60;99.90;;;;;;4971765;28;20023;-79
2023/08/07 01:42:47;;;;;;;2.63;1.50;;;10.60;99.90;;;;;;4970521;28;20027;-79
2023/08/07 01:45:12;;;;;;;3.07;1.53;;;10.50;99.90;;;;;;4971334;28;20153;-79
2023/08/07 01:47:38;;;;;;;3.13;1.70;;;10.50;99.90;;;;;;4971144;28;20030;-79
2023/08/07 01:50:04;;;;;;;2.57;1.80;;;10.50;99.90;;;;;;4970814;28;20058;-80
2023/08/07 01:52:30;;;;;;;2.63;1.20;;;10.50;99.90;;;;;;4970435;28;20023;-80
2023/08/07 01:54:55;;;;;;;3.43;1.50;;;10.50;99.90;;;;;;4970565;28;20075;-80
2023/08/07 01:57:21;;;;;;;5.57;1.57;;;10.40;99.90;;;;;;4970346;28;20109;-80
2023/08/07 01:59:46;;;;;;;3.30;1.70;;;10.50;99.90;;;;;;4970365;28;20580;-79
2023/08/07 02:02:12;;;;;;;3.10;1.53;;;10.40;99.90;;;;;;4970968;28;20752;-80
2023/08/07 02:04:37;;;;;;;3.50;1.50;;;10.40;99.90;;;;;;4971330;28;20467;-79
2023/08/07 02:07:03;;;;;;;3.80;1.50;;;10.40;99.90;;;;;;4970418;28;20035;-79
2023/08/07 02:09:29;;;;;;;4.03;1.63;;;10.40;99.90;;;;;;4971030;28;20402;-80
2023/08/07 02:11:54;;;;;;;3.80;1.57;;;10.40;99.90;;;;;;4970019;28;20023;-79
2023/08/07 02:14:20;;;;;;;4.93;1.97;;;10.40;99.90;;;;;;4969028;28;20038;-80
2023/08/07 02:16:45;;;;;;;2.83;1.60;;;10.40;99.90;;;;;;4968985;28;20121;-79
2023/08/07 02:19:11;;;;;;;3.13;1.60;;;10.40;99.90;;;;;;4969306;28;20035;-80
2023/08/07 02:21:36;;;;;;;3.37;1.47;;;10.40;99.90;;;;;;4969563;28;20161;-79
2023/08/07 02:24:02;;;;;;;4.33;1.70;;;10.40;99.90;;;;;;4969351;28;20027;-79
2023/08/07 02:26:28;;;;;;;2.27;1.50;;;10.50;99.90;;;;;;4968915;28;20045;-80
2023/08/07 02:28:53;;;;;;;3.10;1.83;;;10.50;99.90;;;;;;4969602;28;20042;-80
2023/08/07 02:31:19;;;;;;;2.57;1.50;;;10.50;99.90;;;;;;4969598;28;20026;-79
2023/08/07 02:33:44;;;;;;;2.40;1.40;;;10.50;99.90;;;;;;4970925;28;20039;-80
2023/08/07 02:36:10;;;;;;;3.90;1.70;;;10.50;99.90;;;;;;4969805;28;20058;-79
2023/08/07 02:38:35;;;;;;;3.50;1.80;;;10.50;99.90;;;;;;4969915;28;20058;-80
2023/08/07 02:41:01;;;;;;;2.53;1.50;;;10.50;99.90;;;;;;4968931;28;20901;-80
2023/08/07 02:43:28;;;;;;;3.20;1.40;;;10.50;99.90;;;;;;4968891;28;20030;-80
2023/08/07 02:45:54;;;;;;;4.40;1.57;;;10.50;99.90;;;;;;4969558;28;20026;-80
2023/08/07 02:48:19;;;;;;;1.53;1.10;;;10.50;99.90;;;;;;4970097;28;20030;-80
2023/08/07 02:50:45;;;;;;;5.37;1.87;;;10.50;99.90;;;;;;4970019;28;20128;-80
2023/08/07 02:53:11;;;;;;;3.50;1.50;;;10.50;99.90;;;;;;4971218;28;20082;-80
2023/08/07 02:55:37;;;;;;;2.70;1.40;;;10.50;99.90;;;;;;4970343;28;20031;-80
2023/08/07 02:58:02;;;;;;;3.07;1.37;;;10.60;99.90;;;;;;4969347;28;20027;-80
2023/08/07 03:00:28;;;;;;;3.90;1.90;;;10.60;99.90;;;;;;4970395;28;20031;-80
2023/08/07 03:02:53;;;;;;;3.27;1.70;;;10.60;99.90;;;;;;4969812;28;20095;-80
2023/08/07 03:05:19;;;;;;;3.87;1.63;;;10.70;99.90;;;;;;4970124;28;20139;-80
2023/08/07 03:07:44;;;;;;;4.40;1.50;;;10.70;99.90;;;;;;4968854;28;20641;-79
2023/08/07 03:10:11;;;;;;;2.23;1.47;;;10.70;99.90;;;;;;4970210;28;20496;-80
2023/08/07 03:12:38;;;;;;;4.17;1.60;;;10.60;99.90;;;;;;4969409;28;20042;-80
2023/08/07 03:15:04;;;;;;;4.57;1.57;;;10.70;99.90;;;;;;4970100;28;20038;-80
2023/08/07 03:17:30;;;;;;;5.93;1.83;;;10.80;99.90;;;;;;4970336;28;20023;-80
2023/08/07 03:19:56;;;;;;;2.77;1.60;;;10.80;99.90;;;;;;4969402;28;20942;-80
2023/08/07 03:22:21;;;;;;;5.13;2.20;;;10.80;99.90;;;;;;4969963;28;20022;-80
2023/08/07 03:24:48;;;;;;;4.60;1.67;;;10.80;99.90;;;;;;4969507;28;20477;-80
2023/08/07 03:27:14;;;;;;;3.13;1.60;;;10.80;99.90;;;;;;4970332;28;20033;-80
2023/08/07 03:29:39;;;;;;;2.93;1.57;;;10.90;99.90;;;;;;4970806;28;20014;-80
2023/08/07 03:32:05;;;;;;;2.30;1.40;;;10.90;99.90;;;;;;4969301;28;20023;-79
2023/08/07 03:34:30;;;;;;;9.57;1.70;;;10.90;99.90;;;;;;4969640;28;20070;-80
2023/08/07 03:36:56;;;;;;;4.13;1.73;;;10.90;99.90;;;;;;4968563;28;20061;-80
2023/08/07 03:39:22;;;;;;;4.23;1.50;;;10.90;99.90;;;;;;4969737;28;20027;-80
2023/08/07 03:41:47;;;;;;;5.03;1.83;;;10.90;99.90;;;;;;4968580;28;20037;-80
2023/08/07 03:44:13;;;;;;;2.70;1.67;;;10.90;99.90;;;;;;4969213;28;20046;-79
2023/08/07 03:46:38;;;;;;;5.60;1.70;;;10.90;99.90;;;;;;4968116;28;20034;-80
2023/08/07 03:49:04;;;;;;;5.67;1.97;;;10.90;99.90;;;;;;4968302;28;20034;-79
2023/08/07 03:51:32;;;;;;;5.90;1.80;;;10.80;99.90;;;;;;4969327;28;20030;-80
2023/08/07 03:53:57;;;;;;;3.80;1.37;;;10.80;99.90;;;;;;4969669;28;20038;-80
2023/08/07 03:56:23;;;;;;;2.47;1.50;;;10.80;99.90;;;;;;4968302;28;20042;-80
2023/08/07 03:58:49;;;;;;;2.78;1.50;;;11.00;99.90;;;;;;4969049;28;20023;-80
2023/08/07 04:01:15;;;;;;;3.27;1.50;;;10.90;99.90;;;;;;4969169;28;20112;-79
2023/08/07 04:03:41;;;;;;;2.97;1.50;;;11.00;99.90;;;;;;4968365;28;20038;-79
2023/08/07 04:06:07;;;;;;;2.93;1.40;;;11.00;99.90;;;;;;4968264;28;20116;-79
2023/08/07 04:08:33;;;;;;;3.50;1.60;;;11.00;99.90;;;;;;4966710;28;20146;-80
2023/08/07 04:11:08;;;;;;;4.90;1.83;;;11.10;99.90;;;;;;4967616;28;20755;-79
2023/08/07 04:13:34;;;;;;;;;;;11.10;99.90;;;;;;4968132;28;20023;-80
2023/08/07 04:16:01;;;;;;;4.10;1.90;;;11.00;99.90;;;;;;4967991;28;19925;-80
2023/08/07 04:18:27;;;;;;;3.17;1.63;;;11.00;99.90;;;;;;4966805;28;20026;-80
2023/08/07 04:20:54;;;;;;;4.93;1.80;;;11.10;99.90;;;;;;4964415;28;20035;-79
2023/08/07 04:23:20;;;;;;;3.30;1.70;;;11.10;99.90;;;;;;4965802;28;20485;-79
2023/08/07 04:25:47;;;;;;;4.63;1.80;;;11.10;99.90;;;;;;4964909;28;20153;-79
2023/08/07 04:28:13;;;;;;;4.83;1.60;;;11.10;99.90;;;;;;4965368;28;20027;-80
2023/08/07 04:30:40;;;;;;;3.60;1.57;;;11.10;99.90;;;;;;4965297;28;20023;-79
2023/08/07 04:33:05;;;;;;;3.97;1.87;;;11.10;99.90;;;;;;4965066;28;20037;-79
2023/08/07 04:35:31;;;;;;;3.87;1.77;;;11.10;99.90;;;;;;4964620;28;20946;-79
2023/08/07 04:37:57;;;;;;;4.18;1.80;;;11.10;99.90;;;;;;4964409;28;20494;-80
2023/08/07 04:40:22;;;;;;;3.40;1.80;;;11.10;99.90;;;;;;4964028;28;20031;-79
2023/08/07 04:42:49;;;;;;;4.00;1.80;;;11.10;99.90;;;;;;4963986;28;20758;-79
2023/08/07 04:45:15;;;;;;;3.13;1.75;;;11.20;99.90;;;;;;4963842;28;20138;-79
2023/08/07 04:47:41;;;;;;;3.03;1.58;;;11.20;99.90;;;;;;4963960;28;20030;-80
2023/08/07 04:50:08;;;;;;;3.90;1.60;;;11.20;99.90;;;;;;4964112;28;20491;-79
2023/08/07 04:52:33;;;;;;;3.87;2.00;;;11.20;99.90;;;;;;4964683;28;20106;-79
2023/08/07 04:54:59;;;;;;;3.13;1.52;;;11.20;99.90;;;;;;4966064;28;20194;-82
2023/08/07 04:57:25;;;;;;;3.20;1.40;;;11.30;99.90;;;;;;4965829;28;20042;-81
2023/08/07 04:59:52;;;;;;;5.10;1.80;;;11.30;99.90;;;;;;4966655;28;20459;-82
2023/08/07 05:02:17;;;;;;;5.03;1.58;;;11.30;99.90;;;;;;4967522;28;21177;-81
2023/08/07 05:04:43;;;;;;;2.90;1.50;;;11.40;99.90;;;;;;4983398;28;20038;-82
2023/08/07 05:07:09;;;;;;;3.57;1.63;;;11.30;99.90;;;;;;4965297;28;20405;-82
2023/08/07 05:09:35;;;;;;;5.33;1.50;;;11.30;99.90;;;;;;4964404;28;20134;-82
2023/08/07 05:12:01;;;;;;;4.97;1.60;;;11.30;99.90;;;;;;4968041;28;20031;-83
2023/08/07 05:14:27;;;;;;;3.30;1.83;;;11.30;99.90;;;;;;4973822;28;20030;-81
2023/08/07 05:16:52;;;;;;;3.50;1.57;;;11.40;99.90;;;;;;4975165;28;20037;-82
2023/08/07 05:19:18;;;;;;;6.10;1.70;;;11.30;99.90;;;;;;4973045;28;20073;-82
2023/08/07 05:21:43;;;;;;;3.35;1.77;;;11.30;99.90;;;;;;4973225;28;20035;-83
2023/08/07 05:24:09;;;;;;;3.80;1.60;;;11.30;99.90;;;;;;4971904;28;20418;-81
2023/08/07 05:26:34;;;;;;;5.53;2.30;;;11.30;99.90;;;;;;4973176;28;20027;-82
2023/08/07 05:29:00;;;;;;;5.43;1.60;;;11.30;99.90;;;;;;4973852;28;20026;-82
2023/08/07 05:31:25;;;;;;;4.28;1.75;;;11.40;99.90;;;;;;4971312;28;20050;-82
2023/08/07 05:33:51;;;;;;;2.72;1.48;;;11.30;99.90;;;;;;4972308;28;20033;-82
2023/08/07 05:36:17;;;;;;;4.50;1.50;;;11.30;99.90;;;;;;4971754;28;20049;-83
2023/08/07 05:38:42;;;;;;;5.40;2.08;;;11.30;99.90;;;;;;4970742;28;20034;-81
2023/08/07 05:41:09;;;;;;;5.93;2.20;;;11.30;99.90;;;;;;4972007;28;20033;-82
2023/08/07 05:43:35;;;;;;;3.55;1.65;;;11.40;99.90;;;;;;4970212;28;20027;-82
2023/08/07 05:46:00;;;;;;;5.40;1.60;;;11.40;99.90;;;;;;4971945;28;21023;-82
2023/08/07 05:48:26;;;;;;;5.70;1.70;;;11.40;99.90;;;;;;4971187;28;20624;-82
2023/08/07 05:50:52;;;;;;;7.97;1.80;;;11.40;99.90;;;;;;4971263;28;20081;-81
2023/08/07 05:53:18;;;;;;;6.95;1.77;;;11.40;99.90;;;;;;4972672;28;20042;-82
2023/08/07 05:55:43;;;;;;;4.47;1.80;;;11.40;99.90;;;;;;4971520;28;20491;-82
2023/08/07 05:58:09;;;;;;;3.03;1.50;;;11.40;99.90;;;;;;4970600;28;20030;-82
2023/08/07 06:00:35;;;;;;;4.20;1.65;;;11.40;99.90;;;;;;4971241;28;21031;-82
2023/08/07 06:03:00;;;;;;;3.17;1.50;;;11.50;99.90;;;;;;4970612;28;20111;-83
2023/08/07 06:05:31;;;;;;;3.00;1.60;;;11.60;99.90;;;;;;4966364;28;20035;-83
2023/08/07 06:07:57;;;;;;;3.20;1.40;;;11.50;99.90;;;;;;4971226;28;20038;-82
2023/08/07 06:10:22;;;;;;;15.07;2.47;;;11.50;99.90;;;;;;4971490;28;20026;-82
2023/08/07 06:12:48;;;;;;;3.22;1.75;;;11.50;99.90;;;;;;4970621;28;20154;-82
2023/08/07 06:15:13;;;;;;;5.15;2.10;;;11.50;99.90;;;;;;4969730;28;20038;-82
2023/08/07 06:17:39;;;;;;;2.83;1.48;;;11.50;99.90;;;;;;4970459;28;20027;-82
2023/08/07 06:20:09;;;;;;;5.20;1.50;;;11.60;99.90;;;;;;4968634;28;20031;-82
2023/08/07 06:22:34;;;;;;;8.35;1.98;;;11.70;99.90;;;;;;4969427;28;20671;-82
2023/08/07 06:25:00;;;;;;;9.38;2.08;;;11.80;99.90;;;;;;4969482;28;20030;-82
2023/08/07 06:27:25;;;;;;;3.45;1.73;;;11.80;99.90;;;;;;4970422;28;20061;-81
2023/08/07 06:29:51;;;;;;;3.92;1.77;;;11.90;99.90;;;;;;4969442;28;20027;-81
2023/08/07 06:32:18;;;;;;;4.10;1.70;;;11.90;99.90;;;;;;4969257;28;20365;-81
2023/08/07 06:34:43;;;;;;;4.38;1.77;;;11.90;99.90;;;;;;4967871;28;20023;-81
2023/08/07 06:37:09;;;;;;;5.32;2.10;;;11.90;99.90;;;;;;4969923;28;20061;-81
2023/08/07 06:39:35;;;;;;;4.32;1.80;;;12.00;99.90;;;;;;4969494;28;20034;-81
2023/08/07 06:42:00;;;;;;;4.40;1.85;;;12.00;99.90;;;;;;4969177;28;20023;-82
2023/08/07 06:44:26;;;;;;;4.72;1.58;;;12.10;99.90;;;;;;4969098;28;20121;-81
2023/08/07 06:46:52;;;;;;;4.47;2.00;;;12.10;99.90;;;;;;4968897;28;20030;-81
2023/08/07 06:49:18;;;;;;;4.60;2.03;;;12.10;99.90;;;;;;4967561;28;20035;-82
2023/08/07 06:51:43;;;;;;;3.40;1.50;;;12.10;99.90;;;;;;4969869;28;20155;-81
2023/08/07 06:54:09;;;;;;;4.63;1.60;;;12.20;99.90;;;;;;4968750;28;20470;-81
2023/08/07 06:56:34;;;;;;;3.95;1.70;;;12.20;99.90;;;;;;4968931;28;20927;-82
2023/08/07 06:59:00;;;;;;;3.28;1.55;;;12.40;99.90;;;;;;4970074;28;20019;-81
2023/08/07 07:01:25;;;;;;;2.30;1.20;;;12.50;99.90;;;;;;4966916;28;20034;-82
2023/08/07 07:03:52;;;;;;;6.75;1.40;;;12.50;99.90;;;;;;4958716;28;20174;-82
2023/08/07 07:06:18;;;;;;;6.97;1.90;;;12.60;99.90;;;;;;4960388;28;20026;-82
2023/08/07 07:08:44;;;;;;;4.47;1.50;;;12.70;99.90;;;;;;4960347;28;20030;-82
2023/08/07 07:11:10;;;;;;;5.50;1.85;;;12.70;99.90;;;;;;4960159;28;20022;-83
2023/08/07 07:13:35;;;;;;;4.32;1.60;;;12.90;99.90;;;;;;4959562;28;20141;-82
2023/08/07 07:16:01;;;;;;;3.25;1.45;;;12.90;99.90;;;;;;4962275;28;20174;-81
2023/08/07 07:18:26;;;;;;;4.53;1.40;;;13.00;99.90;;;;;;4962917;28;20055;-82
2023/08/07 07:21:00;;;;;;;4.50;1.50;;;13.10;99.90;;;;;;4961905;28;20051;-82
2023/08/07 07:23:25;;;;;;;3.90;1.60;;;13.30;99.90;;;;;;4959996;28;20102;-83
2023/08/07 07:25:51;;;;;;;2.25;1.50;;;13.30;99.90;;;;;;4962070;28;20091;-82
2023/08/07 07:28:16;;;;;;;3.33;1.50;;;13.30;99.90;;;;;;4962662;28;21498;-82
2023/08/07 07:30:42;;;;;;;5.13;1.50;;;13.30;99.90;;;;;;4959654;28;20031;-83
2023/08/07 07:33:07;;;;;;;6.85;1.77;;;13.40;99.90;;;;;;4957926;28;20464;-82
2023/08/07 07:35:38;;;;;;;4.70;2.08;;;13.40;99.90;;;;;;4959719;28;20685;-82
2023/08/07 07:38:03;;;;;;;3.00;1.45;;;13.50;99.90;;;;;;4960563;28;20031;-81
2023/08/07 07:40:29;;;;;;;3.90;1.40;;;13.50;99.90;;;;;;4961521;28;20458;-82
2023/08/07 07:42:54;;;;;;;3.92;1.40;;;13.40;99.90;;;;;;4961234;28;20038;-82
2023/08/07 07:45:20;;;;;;;3.83;1.45;;;13.50;99.90;;;;;;4958958;28;21022;-82
2023/08/07 07:47:45;;;;;;;2.85;1.55;;;13.60;99.90;;;;;;4960528;28;20043;-81
2023/08/07 07:50:12;;;;;;;2.30;1.50;;;13.70;99.90;;;;;;4957847;28;20034;-82
2023/08/07 07:52:38;;;;;;;3.55;1.60;;;13.70;99.90;;;;;;4968933;28;20026;-82
2023/08/07 07:55:05;;;;;;;4.65;1.55;;;13.80;99.90;;;;;;4967125;28;20031;-82
2023/08/07 07:57:30;;;;;;;1.85;1.38;;;13.90;99.90;;;;;;4965938;28;20692;-81
2023/08/07 07:59:56;;;;;;;3.63;1.48;;;13.90;99.90;;;;;;4965713;28;20026;-87
2023/08/07 08:02:24;;;;;;;3.15;1.60;;;13.80;99.90;;;;;;4965881;28;20141;-81
2023/08/07 08:04:50;;;;;;;4.13;1.30;;;13.80;99.90;;;;;;4967318;28;20034;-81
2023/08/07 08:07:16;;;;;;;4.40;1.40;;;13.80;99.90;;;;;;4965815;28;20051;-80
2023/08/07 08:09:41;;;;;;;4.20;1.60;;;13.70;99.90;;;;;;4966951;28;20031;-80
2023/08/07 08:12:08;;;;;;;5.32;1.65;;;13.70;99.90;;;;;;4965709;28;20034;-82
2023/08/07 08:14:33;;;;;;;4.82;1.60;;;13.70;99.90;;;;;;4965746;28;20030;-82
2023/08/07 08:16:59;;;;;;;3.22;1.85;;;13.70;99.90;;;;;;4965852;28;20039;-81
2023/08/07 08:19:24;;;;;;;3.15;1.70;;;13.70;99.90;;;;;;4966898;28;20054;-80
2023/08/07 08:21:50;;;;;;;4.40;1.42;;;13.70;99.90;;;;;;4965837;28;20026;-81
2023/08/07 08:24:15;;;;;;;3.53;1.83;;;13.70;99.90;;;;;;4966194;28;20088;-81
2023/08/07 08:26:41;;;;;;;6.07;1.65;;;13.70;99.90;;;;;;4967722;28;20031;-81
2023/08/07 08:29:07;;;;;;;3.63;1.52;;;13.80;99.90;;;;;;4969803;28;20027;-82
2023/08/07 08:31:34;;;;;;;3.67;1.73;;;13.80;99.90;;;;;;4955265;28;21504;-81
2023/08/07 08:33:59;;;;;;;4.45;1.50;;;13.80;99.90;;;;;;4961036;28;20046;-82
2023/08/07 08:36:25;;;;;;;4.53;1.67;;;13.70;99.90;;;;;;4961397;28;20061;-82
2023/08/07 08:38:51;;;;;;;4.35;1.65;;;13.70;99.90;;;;;;4962970;28;20466;-81
2023/08/07 08:41:17;;;;;;;3.78;1.70;;;13.80;99.90;;;;;;4958010;28;20157;-81
2023/08/07 08:43:46;;;;;;;6.68;1.65;;;13.80;99.90;;;;;;4963264;28;20027;-81
2023/08/07 08:46:15;;;;;;;3.78;1.60;;;13.90;99.90;;;;;;4966777;28;20059;-81
2023/08/07 08:48:46;;;;;;;5.13;1.90;;;13.80;99.90;;;;;;4964388;28;20090;-81
2023/08/07 08:51:13;;;;;;;3.78;1.60;;;13.80;99.90;;;;;;4962078;28;20043;-81
2023/08/07 08:53:39;;;;;;;3.67;1.85;;;13.90;99.90;;;;;;4965071;28;20027;-81
2023/08/07 08:56:06;;;;;;;3.70;1.70;;;14.00;99.90;;;;;;4966375;28;20038;-82
2023/08/07 08:58:32;;;;;;;4.85;1.65;;;14.10;99.90;;;;;;4964454;28;20038;-81
2023/08/07 09:00:58;;;;;;;3.47;1.60;;;14.20;99.90;;;;;;4961787;28;20033;-81
2023/08/07 09:03:24;;;;;;;4.35;1.38;;;14.10;99.90;;;;;;4963503;28;20038;-81
2023/08/07 09:05:54;;;;;;;3.17;1.80;;;14.10;99.90;;;;;;4961680;28;20038;-82
2023/08/07 09:08:22;;;;;;;2.90;1.50;;;14.10;99.90;;;;;;4961010;28;20505;-81
2023/08/07 09:10:48;;;;;;;4.40;2.03;;;14.00;99.90;;;;;;4959958;28;20022;-81
2023/08/07 09:13:16;;;;;;;6.57;1.63;;;13.90;99.90;;;;;;4959096;28;20032;-81
2023/08/07 09:15:47;;;;;;;4.13;1.52;;;13.90;99.90;;;;;;4960322;28;20517;-81
2023/08/07 09:18:13;;;;;;;2.95;1.60;;;13.90;99.90;;;;;;4962720;28;20083;-81
2023/08/07 09:20:39;;;;;;;2.85;1.58;;;13.90;99.90;;;;;;4968328;28;20094;-81
2023/08/07 09:23:05;;;;;;;3.53;1.77;;;14.00;99.90;;;;;;4966444;28;20469;-81
2023/08/07 09:25:32;;;;;;;2.63;1.70;;;14.10;99.90;;;;;;4970248;28;20038;-81
2023/08/07 09:28:00;;;;;;;6.05;1.63;;;14.30;99.90;;;;;;4966606;28;20039;-82
2023/08/07 09:30:28;;;;;;;6.32;1.70;;;14.50;99.90;;;;;;4964620;28;20031;-81
2023/08/07 09:32:56;;;;;;;2.10;1.50;;;14.70;99.90;;;;;;4965060;28;20062;-82
2023/08/07 09:35:22;;;;;;;6.30;1.50;;;14.80;99.90;;;;;;4968306;28;20463;-82
2023/08/07 09:37:47;;;;;;;4.35;1.63;;;14.80;99.90;;;;;;4959772;28;20026;-81
2023/08/07 09:40:15;;;;;;;4.25;2.40;;;14.90;99.90;;;;;;4967880;28;20058;-82
2023/08/07 09:42:41;;;;;;;4.30;1.60;;;15.10;99.90;;;;;;4967300;28;20022;-81
2023/08/07 09:45:26;;;;;;;4.75;1.75;;;15.10;99.90;;;;;;4965979;28;20042;-81
2023/08/07 09:48:06;;;;;;;4.93;1.63;;;15.20;99.90;;;;;;4962708;28;20568;-81
2023/08/07 09:50:32;;;;;;;3.13;1.42;;;15.30;99.90;;;;;;4965358;28;20065;-81
2023/08/07 09:52:58;;;;;;;2.53;1.25;;;15.40;99.90;;;;;;4966196;28;20089;-82
2023/08/07 09:55:24;;;;;;;4.47;1.48;;;15.60;99.90;;;;;;4964255;28;20035;-83
2023/08/07 09:57:50;;;;;;;2.83;1.48;;;15.80;99.90;;;;;;4963841;28;20030;-82
2023/08/07 10:00:19;;;;;;;4.15;1.63;;;15.70;99.90;;;;;;4965106;28;20027;-81
2023/08/07 10:02:45;;;;;;;3.38;1.40;;;15.80;99.90;;;;;;4964101;28;20041;-82
2023/08/07 10:05:12;;;;;;;3.60;1.70;;;15.90;99.90;;;;;;4964659;28;20042;-82
2023/08/07 10:07:38;;;;;;;2.03;1.27;;;16.20;99.90;;;;;;4962797;28;20031;-82
2023/08/07 10:10:05;;;;;;;3.75;1.50;;;16.50;99.90;;;;;;4963733;28;20045;-83
2023/08/07 10:12:31;;;;;;;9.48;1.50;;;16.90;99.90;;;;;;4968625;28;20043;-72
2023/08/07 10:14:59;;;;;;;4.78;1.60;;;17.20;99.90;;;;;;4966838;28;20089;-83
2023/08/07 10:17:25;;;;;;;5.13;1.83;;;17.40;99.90;;;;;;4970735;28;20027;-83
2023/08/07 10:19:51;;;;;;;3.65;1.70;;;17.50;99.90;;;;;;4971363;28;20054;-82
2023/08/07 10:22:19;;;;;;;3.80;1.80;;;17.60;99.90;;;;;;4975011;28;20892;-82
2023/08/07 10:24:48;;;;;;;2.13;1.38;;;17.70;99.90;;;;;;4970689;28;20034;-76
2023/08/07 10:27:17;;;;;;;3.50;1.67;;;17.80;99.90;;;;;;4963717;28;20111;-83
2023/08/07 10:29:46;;;;;;;5.85;1.40;;;18.20;99.90;;;;;;4966066;28;20770;-83
2023/08/07 10:32:12;;;;;;;4.20;1.55;;;18.40;99.90;;;;;;4966943;28;20134;-83
2023/08/07 10:34:38;;;;;;;4.47;1.50;;;18.40;99.90;;;;;;4965451;28;20775;-84
2023/08/07 10:37:07;;;;;;;4.30;1.70;;;18.50;99.90;;;;;;4964505;28;20039;-83
2023/08/07 10:39:33;;;;;;;4.18;1.50;;;18.30;99.90;;;;;;4966753;28;20058;-83
2023/08/07 10:42:00;;;;;;;4.05;1.83;;;18.20;99.90;;;;;;4962528;28;20544;-83
2023/08/07 10:44:33;;;;;;;3.05;1.42;;;18.30;99.90;;;;;;4964151;28;20035;-84
2023/08/07 10:46:58;;;;;;;2.60;1.20;;;18.20;99.90;;;;;;4960201;28;20031;-84
2023/08/07 10:49:35;;;;;;;1.85;1.40;;;18.20;99.90;;;;;;4963316;28;20085;-84
2023/08/07 10:52:17;;;;;;;3.58;1.65;;;18.10;99.90;;;;;;4961076;28;20897;-84
2023/08/07 10:54:47;;;;;;;3.85;1.50;;;18.00;99.90;;;;;;4963642;28;20126;-83
2023/08/07 10:57:15;;;;;;;3.53;1.50;;;17.90;99.90;;;;;;4964558;28;20161;-84
2023/08/07 10:59:55;;;;;;;1.65;1.25;;;17.60;99.90;;;;;;4964987;28;20076;-84
2023/08/07 11:02:26;;;;;;;4.38;1.42;;;17.50;99.90;;;;;;4964729;28;20039;-84
2023/08/07 11:04:53;;;;;;;3.15;1.35;;;17.40;99.90;;;;;;4965616;28;20109;-83
2023/08/07 11:07:26;;;;;;;3.17;1.45;;;17.40;99.90;;;;;;4967264;28;20850;-83
2023/08/07 11:09:52;;;;;;;2.17;1.40;;;17.60;99.90;;;;;;4966237;28;20045;-82
2023/08/07 11:12:19;;;;;;;4.57;1.50;;;17.80;99.90;;;;;;4969906;28;20027;-82
2023/08/07 11:14:45;;;;;;;8.75;1.52;;;18.00;99.90;;;;;;4968153;28;20041;-82
2023/08/07 11:17:10;;;;;;;2.88;1.27;;;17.90;99.90;;;;;;4969596;28;20043;-82
2023/08/07 11:19:36;;;;;;;1.83;1.40;;;17.80;99.90;;;;;;4970525;28;20125;-82
2023/08/07 11:22:02;;;;;;;3.25;1.73;;;17.50;99.90;;;;;;4967196;28;20057;-82
2023/08/07 11:24:28;;;;;;;4.28;1.50;;;17.20;99.90;;;;;;4968971;28;20029;-82
2023/08/07 11:26:56;;;;;;;3.45;1.45;;;16.90;99.90;;;;;;4969387;28;20030;-82
2023/08/07 11:29:30;;;;;;;2.90;1.50;;;16.60;99.90;;;;;;5065915;28;20439;-82
2023/08/07 11:31:56;;;;;;;2.40;1.40;;;16.30;99.90;;;;;;5052464;28;20111;-83
2023/08/07 11:34:22;;;;;;;4.55;1.85;;;16.20;99.90;;;;;;5053291;28;20029;-83
2023/08/07 11:36:48;;;;;;;2.90;1.40;;;16.20;99.90;;;;;;5052370;28;20029;-83
2023/08/07 11:39:14;;;;;;;2.38;1.30;;;16.20;99.90;;;;;;5052694;28;20408;-82
2023/08/07 11:41:40;;;;;;;3.20;1.80;;;16.40;99.90;;;;;;5052341;28;20032;-82
2023/08/07 11:44:08;;;;;;;1.90;1.40;;;16.50;99.90;;;;;;5052756;28;20124;-83
2023/08/07 11:46:33;;;;;;;2.70;1.52;;;16.70;99.90;;;;;;5052850;28;20398;-82
2023/08/07 11:48:59;;;;;;;3.15;1.42;;;16.80;99.90;;;;;;5051754;28;20037;-82
2023/08/07 11:51:25;;;;;;;2.42;1.40;;;16.80;99.90;;;;;;5052316;28;20036;-82
2023/08/07 11:53:56;;;;;;;2.78;1.67;;;17.10;99.90;;;;;;5052125;28;20025;-82
2023/08/07 11:56:22;;;;;;;3.03;1.77;;;17.40;99.90;;;;;;5051950;28;20879;-82
2023/08/07 11:58:48;;;;;;;2.38;1.40;;;17.70;99.90;;;;;;5050300;28;20066;-75
2023/08/07 12:01:16;;;;;;;3.72;1.85;;;18.20;99.90;;;;;;5045675;28;20043;-76
2023/08/07 12:03:50;;;;;;;2.85;1.30;;;18.80;99.90;;;;;;5045764;28;20039;-75
2023/08/07 12:06:16;;;;;;;4.35;1.48;;;19.30;99.90;;;;;;5045816;28;20028;-75
2023/08/07 12:08:42;;;;;;;2.63;1.60;;;19.70;99.90;;;;;;5046854;28;20374;-75
2023/08/07 12:11:12;;;;;;;2.05;1.40;;;19.80;99.90;;;;;;5046669;28;20060;-75
2023/08/07 12:13:42;;;;;;;4.28;1.63;;;20.00;99.90;;;;;;5046407;28;20033;-75
2023/08/07 12:16:08;;;;;;;2.75;1.42;;;19.80;99.90;;;;;;5044985;28;20484;-75
2023/08/07 12:18:37;;;;;;;3.40;1.60;;;19.70;99.90;;;;;;5046297;28;20085;-75
2023/08/07 12:21:04;;;;;;;3.17;1.48;;;19.80;99.90;;;;;;5046681;28;20048;-75
2023/08/07 12:23:33;;;;;;;2.58;1.40;;;19.70;99.90;;;;;;5045888;28;20029;-76
2023/08/07 12:25:58;;;;;;;3.42;1.48;;;19.90;99.90;;;;;;5045936;28;20192;-77
2023/08/07 12:28:24;;;;;;;3.45;1.35;;;20.00;99.90;;;;;;5045542;28;20862;-75
2023/08/07 12:30:51;;;;;;;3.30;1.48;;;20.10;99.90;;;;;;5045891;28;20117;-76
2023/08/07 12:33:17;;;;;;;2.28;1.35;;;20.20;99.90;;;;;;5047080;28;20890;-83
2023/08/07 12:35:43;;;;;;;2.17;1.73;;;20.00;99.90;;;;;;5050390;28;20020;-83
2023/08/07 12:38:09;;;;;;;3.53;1.88;;;19.60;99.90;;;;;;5051616;28;20028;-82
2023/08/07 12:40:37;;;;;;;3.40;1.42;;;19.40;99.90;;;;;;5038369;28;20097;-84
2023/08/07 12:43:04;;;;;;;4.40;1.83;;;19.30;99.90;;;;;;5037175;28;20076;-82
2023/08/07 12:45:30;;;;;;;2.08;1.40;;;18.90;99.90;;;;;;5036010;28;20075;-83